createdAt,value
2022-10-09T00:00:42.116Z,8.56
2022-10-09T00:03:08.719Z,8.55
2022-10-09T00:05:35.502Z,8.53
2022-10-09T00:08:02.219Z,8.53
2022-10-09T00:10:28.994Z,8.55
2022-10-09T00:12:55.876Z,8.55
2022-10-09T00:15:22.526Z,8.53
2022-10-09T00:17:49.607Z,8.48
2022-10-09T00:20:16.282Z,8.48
2022-10-09T00:22:46.024Z,8.44
2022-10-09T00:25:14.890Z,8.45
2022-10-09T00:27:41.425Z,8.43
2022-10-09T00:30:08.766Z,8.43
2022-10-09T00:32:35.337Z,8.40
2022-10-09T00:35:01.890Z,8.38
2022-10-09T00:37:28.818Z,8.35
2022-10-09T00:39:55.393Z,8.34
2022-10-09T00:42:22.030Z,8.32
2022-10-09T00:45:00.379Z,8.26
2022-10-09T00:47:34.319Z,8.28
2022-10-09T00:50:12.082Z,8.25
2022-10-09T00:52:38.902Z,8.20
2022-10-09T00:55:07.680Z,8.20
2022-10-09T00:57:35.016Z,8.19
2022-10-09T01:00:04.895Z,8.17
2022-10-09T01:02:31.510Z,8.12
2022-10-09T01:04:58.086Z,8.06
2022-10-09T01:07:53.981Z,8.06
2022-10-09T01:10:41.771Z,8.01
2022-10-09T01:13:17.324Z,8.03
2022-10-09T01:15:54.897Z,8.02
2022-10-09T01:18:29.591Z,7.97
2022-10-09T01:21:02.801Z,7.95
2022-10-09T01:24:03.492Z,7.94
2022-10-09T01:26:45.176Z,7.92
2022-10-09T01:29:13.429Z,7.89
2022-10-09T01:31:46.834Z,7.85
2022-10-09T01:34:16.281Z,7.87
2022-10-09T01:36:44.512Z,7.85
2022-10-09T01:39:16.475Z,7.83
2022-10-09T01:41:43.667Z,7.82
2022-10-09T01:44:26.762Z,7.83
2022-10-09T01:46:53.516Z,7.83
2022-10-09T01:49:23.191Z,7.85
2022-10-09T01:52:27.289Z,7.85
2022-10-09T01:55:18.055Z,7.83
2022-10-09T01:58:26.076Z,7.80
2022-10-09T02:01:07.742Z,7.79
2022-10-09T02:03:36.414Z,7.77
2022-10-09T02:06:05.940Z,7.73
2022-10-09T02:08:34.961Z,7.75
2022-10-09T02:11:05.269Z,7.76
2022-10-09T02:13:33.943Z,7.78
2022-10-09T02:16:27.441Z,7.77
2022-10-09T02:19:21.272Z,7.75
2022-10-09T02:21:54.410Z,7.78
2022-10-09T02:24:23.165Z,7.78
2022-10-09T02:26:52.926Z,7.78
2022-10-09T02:29:19.923Z,7.78
2022-10-09T02:31:46.960Z,7.77
2022-10-09T02:34:17.709Z,7.77
2022-10-09T02:36:44.301Z,7.61
2022-10-09T02:39:10.991Z,7.71
2022-10-09T02:41:38.131Z,7.73
2022-10-09T02:44:05.993Z,7.72
2022-10-09T02:46:33.993Z,7.70
2022-10-09T02:49:00.720Z,7.69
2022-10-09T02:51:27.262Z,7.56
2022-10-09T02:53:54.725Z,7.65
2022-10-09T02:56:22.894Z,7.63
2022-10-09T02:58:49.929Z,7.60
2022-10-09T03:01:16.513Z,7.42
2022-10-09T03:03:43.712Z,7.42
2022-10-09T03:06:13.743Z,7.52
2022-10-09T03:08:42.971Z,7.51
2022-10-09T03:11:10.841Z,7.48
2022-10-09T03:13:39.605Z,7.45
2022-10-09T03:16:08.793Z,7.30
2022-10-09T03:18:36.581Z,7.40
2022-10-09T03:21:11.318Z,7.38
2022-10-09T03:23:38.081Z,7.36
2022-10-09T03:26:08.255Z,7.35
2022-10-09T03:28:43.373Z,7.31
2022-10-09T03:31:22.365Z,7.29
2022-10-09T03:33:57.503Z,7.25
2022-10-09T03:36:24.043Z,7.24
2022-10-09T03:38:50.859Z,7.26
2022-10-09T03:41:17.411Z,7.24
2022-10-09T03:43:43.999Z,7.17
2022-10-09T03:46:10.953Z,7.12
2022-10-09T03:48:38.141Z,7.21
2022-10-09T03:51:04.796Z,7.20
2022-10-09T03:53:31.616Z,7.18
2022-10-09T03:55:58.188Z,7.21
2022-10-09T03:58:25.174Z,7.16
2022-10-09T04:00:52.801Z,7.03
2022-10-09T04:03:20.471Z,7.19
2022-10-09T04:05:47.237Z,7.19
2022-10-09T04:08:13.957Z,7.18
2022-10-09T04:10:40.595Z,7.17
2022-10-09T04:13:07.419Z,7.13
2022-10-09T04:15:35.242Z,7.12
2022-10-09T04:18:01.840Z,7.10
2022-10-09T04:20:28.366Z,7.10
2022-10-09T04:22:54.937Z,7.02
2022-10-09T04:25:21.680Z,7.02
2022-10-09T04:27:48.216Z,7.09
2022-10-09T04:30:14.846Z,7.00
2022-10-09T04:32:41.423Z,7.09
2022-10-09T04:35:08.400Z,7.08
2022-10-09T04:37:36.703Z,7.09
2022-10-09T04:40:04.015Z,7.11
2022-10-09T04:42:30.571Z,7.18
2022-10-09T04:44:57.094Z,7.21
2022-10-09T04:47:23.797Z,7.27
2022-10-09T04:49:50.512Z,7.31
2022-10-09T04:52:17.055Z,7.33
2022-10-09T04:54:43.630Z,7.40
2022-10-09T04:57:10.215Z,7.46
2022-10-09T04:59:36.756Z,7.52
2022-10-09T05:02:04.012Z,7.58
2022-10-09T05:04:30.933Z,7.66
2022-10-09T05:06:57.462Z,7.71
2022-10-09T05:09:24.220Z,7.79
2022-10-09T05:11:50.783Z,7.73
2022-10-09T05:14:17.329Z,7.93
2022-10-09T05:17:08.543Z,8.03
2022-10-09T05:19:30.364Z,8.15
2022-10-09T05:21:56.826Z,8.20
2022-10-09T05:24:23.446Z,8.24
2022-10-09T05:26:50.212Z,8.29
2022-10-09T05:29:16.774Z,8.36
2022-10-09T05:31:48.379Z,8.40
2022-10-09T05:34:16.022Z,8.48
2022-10-09T05:36:42.675Z,8.52
2022-10-09T05:39:09.300Z,8.48
2022-10-09T05:41:35.854Z,8.54
2022-10-09T05:44:03.174Z,8.63
2022-10-09T05:46:30.300Z,8.68
2022-10-09T05:49:01.894Z,8.75
2022-10-09T05:51:33.707Z,8.83
2022-10-09T05:54:01.963Z,8.91
2022-10-09T05:56:38.771Z,8.99
2022-10-09T05:59:15.012Z,9.04
2022-10-09T06:01:44.000Z,9.17
2022-10-09T06:04:20.354Z,9.24
2022-10-09T06:06:48.608Z,9.28
2022-10-09T06:09:22.427Z,9.38
2022-10-09T06:11:51.037Z,9.46
2022-10-09T06:14:18.395Z,9.43
2022-10-09T06:16:45.614Z,9.66
2022-10-09T06:19:14.695Z,9.80
2022-10-09T06:21:42.196Z,9.92
2022-10-09T06:24:16.316Z,10.04
2022-10-09T06:26:42.890Z,10.20
2022-10-09T06:29:09.644Z,10.28
2022-10-09T06:31:36.211Z,10.45
2022-10-09T06:34:05.496Z,10.64
2022-10-09T06:36:34.862Z,10.78
2022-10-09T06:39:03.770Z,10.86
2022-10-09T06:41:30.329Z,11.05
2022-10-09T06:44:01.932Z,11.14
2022-10-09T06:46:31.720Z,11.19
2022-10-09T06:49:00.507Z,11.32
2022-10-09T06:51:30.912Z,11.34
2022-10-09T06:54:00.277Z,11.45
2022-10-09T06:56:29.432Z,11.56
2022-10-09T06:58:56.148Z,11.68
2022-10-09T07:01:26.999Z,11.73
2022-10-09T07:03:56.140Z,11.78
2022-10-09T07:06:25.029Z,11.81
2022-10-09T07:08:54.271Z,11.91
2022-10-09T07:11:43.279Z,12.00
2022-10-09T07:14:11.475Z,11.96
2022-10-09T07:16:41.605Z,12.09
2022-10-09T07:19:11.348Z,12.24
2022-10-09T07:21:43.521Z,12.35
2022-10-09T07:24:11.769Z,12.44
2022-10-09T07:26:40.642Z,12.54
2022-10-09T07:29:09.058Z,12.66
2022-10-09T07:31:35.713Z,12.80
2022-10-09T07:34:02.786Z,12.76
2022-10-09T07:36:29.577Z,13.00
2022-10-09T07:38:58.050Z,13.10
2022-10-09T07:41:27.556Z,13.22
2022-10-09T07:43:54.318Z,13.31
2022-10-09T07:46:22.983Z,13.38
2022-10-09T07:48:50.772Z,13.51
2022-10-09T07:51:20.222Z,13.56
2022-10-09T07:53:47.101Z,13.66
2022-10-09T07:56:15.662Z,13.84
2022-10-09T07:58:43.501Z,13.90
2022-10-09T08:01:10.499Z,14.03
2022-10-09T08:03:38.013Z,14.13
2022-10-09T08:06:05.188Z,14.23
2022-10-09T08:08:31.955Z,14.31
2022-10-09T08:10:58.627Z,14.37
2022-10-09T08:13:25.403Z,14.43
2022-10-09T08:15:52.199Z,14.51
2022-10-09T08:18:18.743Z,14.59
2022-10-09T08:20:45.414Z,14.66
2022-10-09T08:23:11.955Z,14.75
2022-10-09T08:25:38.535Z,14.83
2022-10-09T08:28:05.458Z,14.90
2022-10-09T08:30:32.085Z,14.99
2022-10-09T08:32:58.628Z,15.09
2022-10-09T08:35:25.257Z,15.05
2022-10-09T08:37:51.800Z,15.28
2022-10-09T08:40:43.759Z,15.37
2022-10-09T08:43:15.338Z,15.36
2022-10-09T08:45:44.581Z,15.60
2022-10-09T08:48:22.143Z,15.67
2022-10-09T08:50:53.785Z,15.81
2022-10-09T08:53:37.560Z,15.95
2022-10-09T08:56:06.594Z,16.04
2022-10-09T08:58:35.891Z,16.15
2022-10-09T09:01:14.532Z,16.37
2022-10-09T09:04:05.563Z,16.53
2022-10-09T09:06:57.414Z,16.70
2022-10-09T09:10:00.036Z,16.80
2022-10-09T09:12:44.246Z,16.88
2022-10-09T09:15:26.169Z,16.95
2022-10-09T09:18:34.662Z,16.99
2022-10-09T09:21:29.232Z,16.99
2022-10-09T09:23:58.751Z,16.98
2022-10-09T09:26:27.140Z,17.01
2022-10-09T09:29:01.284Z,17.00
2022-10-09T09:31:37.359Z,17.05
2022-10-09T09:34:15.271Z,17.04
2022-10-09T09:36:58.880Z,17.04
2022-10-09T09:42:19.902Z,16.92
2022-10-09T09:44:54.663Z,16.78
2022-10-09T09:47:32.887Z,16.75
2022-10-09T09:50:01.637Z,16.70
2022-10-09T09:52:37.562Z,16.57
2022-10-09T09:55:05.178Z,16.59
2022-10-09T09:57:39.866Z,16.57
2022-10-09T10:00:22.699Z,16.55
2022-10-09T10:02:50.546Z,16.52
2022-10-09T10:05:23.292Z,16.50
2022-10-09T10:07:51.455Z,16.51
2022-10-09T10:10:25.501Z,16.41
2022-10-09T10:12:52.704Z,16.62
2022-10-09T10:15:19.452Z,16.70
2022-10-09T10:17:48.474Z,16.82
2022-10-09T10:20:17.168Z,16.90
2022-10-09T10:22:51.606Z,16.97
2022-10-09T10:25:20.845Z,17.02
2022-10-09T10:27:51.085Z,17.10
2022-10-09T10:30:20.092Z,17.19
2022-10-09T10:32:55.602Z,17.41
2022-10-09T10:35:29.199Z,17.44
2022-10-09T10:38:06.314Z,17.29
2022-10-09T10:40:36.514Z,17.38
2022-10-09T10:43:15.207Z,17.42
2022-10-09T10:45:53.012Z,17.32
2022-10-09T10:48:45.562Z,17.16
2022-10-09T10:51:47.491Z,16.89
2022-10-09T10:54:51.255Z,16.72
2022-10-09T10:57:46.397Z,16.61
2022-10-09T11:00:14.441Z,16.51
2022-10-09T11:03:05.869Z,16.41
2022-10-09T11:05:38.639Z,16.37
2022-10-09T11:08:13.917Z,16.31
2022-10-09T11:10:46.780Z,16.20
2022-10-09T11:13:19.748Z,16.06
2022-10-09T11:15:55.261Z,16.00
2022-10-09T11:18:34.373Z,15.95
2022-10-09T11:21:12.208Z,15.79
2022-10-09T11:23:47.774Z,15.65
2022-10-09T11:26:41.373Z,15.52
2022-10-09T11:29:20.475Z,15.39
2022-10-09T11:31:59.814Z,15.19
2022-10-09T11:34:38.989Z,15.13
2022-10-09T11:37:12.765Z,15.01
2022-10-09T11:39:39.866Z,14.91
2022-10-09T11:42:10.106Z,14.72
2022-10-09T11:44:57.610Z,14.64
2022-10-09T11:47:52.635Z,14.36
2022-10-09T11:50:22.006Z,14.25
2022-10-09T11:53:01.412Z,14.10
2022-10-09T11:55:33.023Z,14.00
2022-10-09T11:58:23.492Z,13.75
2022-10-09T12:00:53.941Z,13.63
2022-10-09T12:03:42.452Z,13.68
2022-10-09T12:06:17.571Z,13.60
2022-10-09T12:08:57.920Z,13.55
2022-10-09T12:11:25.744Z,13.55
2022-10-09T12:13:55.350Z,13.35
2022-10-09T12:16:41.529Z,13.51
2022-10-09T12:19:38.877Z,13.44
2022-10-09T12:22:19.868Z,13.43
2022-10-09T12:24:50.277Z,13.45
2022-10-09T12:27:21.979Z,13.39
2022-10-09T12:29:54.895Z,13.28
2022-10-09T12:32:31.574Z,13.25
2022-10-09T12:34:58.803Z,13.33
2022-10-09T12:37:35.435Z,13.21
2022-10-09T12:40:16.447Z,13.31
2022-10-09T12:42:45.095Z,13.31
2022-10-09T12:45:30.425Z,13.30
2022-10-09T12:48:09.979Z,13.10
2022-10-09T12:50:36.744Z,13.18
2022-10-09T12:53:06.384Z,13.16
2022-10-09T12:55:35.479Z,13.16
2022-10-09T12:58:18.376Z,13.17
2022-10-09T13:00:48.472Z,13.07
2022-10-09T13:03:34.556Z,13.16
2022-10-09T13:06:03.660Z,13.02
2022-10-09T13:08:32.511Z,13.09
2022-10-09T13:11:18.039Z,13.04
2022-10-09T13:13:52.540Z,13.06
2022-10-09T13:16:19.854Z,13.11
2022-10-09T13:18:57.474Z,13.02
2022-10-09T13:21:29.128Z,12.99
2022-10-09T13:24:13.132Z,13.03
2022-10-09T13:26:42.707Z,13.11
2022-10-09T13:29:09.422Z,13.08
2022-10-09T13:31:37.054Z,13.09
2022-10-09T13:34:14.138Z,12.99
2022-10-09T13:36:40.718Z,13.08
2022-10-09T13:39:10.628Z,13.06
2022-10-09T13:41:37.352Z,13.10
2022-10-09T13:44:03.954Z,13.10
2022-10-09T13:46:30.599Z,13.09
2022-10-09T13:48:57.429Z,13.15
2022-10-09T13:51:24.027Z,13.12
2022-10-09T13:53:50.763Z,13.15
2022-10-09T13:56:17.472Z,13.14
2022-10-09T13:58:44.005Z,13.11
2022-10-09T14:01:10.799Z,13.09
2022-10-09T14:03:37.454Z,13.06
2022-10-09T14:06:04.458Z,12.99
2022-10-09T14:08:31.215Z,12.95
2022-10-09T14:11:01.023Z,13.00
2022-10-09T14:13:28.584Z,12.84
2022-10-09T14:15:55.620Z,12.93
2022-10-09T14:18:22.229Z,12.92
2022-10-09T14:20:48.805Z,12.93
2022-10-09T14:23:15.905Z,12.93
2022-10-09T14:25:42.720Z,12.90
2022-10-09T14:28:09.304Z,12.86
2022-10-09T14:30:40.313Z,12.85
2022-10-09T14:33:06.922Z,12.86
2022-10-09T14:35:33.667Z,12.71
2022-10-09T14:38:00.221Z,12.88
2022-10-09T14:40:26.978Z,12.75
2022-10-09T14:42:53.536Z,12.86
2022-10-09T14:45:20.084Z,12.84
2022-10-09T14:47:46.780Z,12.82
2022-10-09T14:50:14.194Z,12.84
2022-10-09T14:52:40.870Z,12.77
2022-10-09T14:55:08.100Z,12.85
2022-10-09T14:57:35.758Z,12.81
2022-10-09T15:00:05.216Z,12.68
2022-10-09T15:02:31.835Z,12.71
2022-10-09T15:04:58.404Z,12.77
2022-10-09T15:07:27.956Z,12.81
2022-10-09T15:09:55.024Z,12.84
2022-10-09T15:12:21.563Z,12.79
2022-10-09T15:14:48.108Z,12.84
2022-10-09T15:17:15.035Z,12.81
2022-10-09T15:19:41.579Z,12.85
2022-10-09T15:22:08.326Z,12.86
2022-10-09T15:24:34.878Z,12.85
2022-10-09T15:27:01.587Z,12.84
2022-10-09T15:29:28.151Z,12.82
2022-10-09T15:31:54.803Z,12.79
2022-10-09T15:34:21.445Z,12.78
2022-10-09T15:36:48.019Z,12.77
2022-10-09T15:39:15.419Z,12.66
2022-10-09T15:41:43.184Z,12.71
2022-10-09T15:44:27.758Z,12.68
2022-10-09T15:46:54.323Z,12.67
2022-10-09T15:49:20.867Z,12.66
2022-10-09T15:51:47.524Z,12.60
2022-10-09T15:54:15.303Z,12.64
2022-10-09T15:56:42.328Z,12.50
2022-10-09T15:59:13.634Z,12.67
2022-10-09T16:01:40.418Z,12.66
2022-10-09T16:04:06.990Z,12.66
2022-10-09T16:06:33.757Z,12.54
2022-10-09T16:09:01.195Z,12.54
2022-10-09T16:11:27.733Z,12.45
2022-10-09T16:13:55.277Z,12.40
2022-10-09T16:16:24.612Z,12.40
2022-10-09T16:18:51.784Z,12.43
2022-10-09T16:21:21.431Z,12.41
2022-10-09T16:23:47.969Z,12.38
2022-10-09T16:26:17.505Z,12.38
2022-10-09T16:28:45.160Z,12.33
2022-10-09T16:31:24.550Z,12.18
2022-10-09T16:33:51.943Z,12.26
2022-10-09T16:36:18.777Z,12.23
2022-10-09T16:38:46.007Z,12.21
2022-10-09T16:41:17.774Z,12.20
2022-10-09T16:43:46.101Z,12.20
2022-10-09T16:46:21.822Z,12.17
2022-10-09T16:48:49.760Z,12.17
2022-10-09T16:51:22.101Z,12.01
2022-10-09T16:53:53.447Z,12.04
2022-10-09T16:56:23.032Z,12.11
2022-10-09T16:58:54.324Z,12.04
2022-10-09T17:01:21.319Z,12.13
2022-10-09T17:03:47.887Z,12.01
2022-10-09T17:06:21.005Z,12.08
2022-10-09T17:08:48.123Z,12.07
2022-10-09T17:11:15.447Z,11.98
2022-10-09T17:13:42.183Z,11.81
2022-10-09T17:16:15.786Z,11.85
2022-10-09T17:18:44.699Z,11.75
2022-10-09T17:21:12.868Z,11.61
2022-10-09T17:23:40.071Z,11.64
2022-10-09T17:26:11.842Z,11.61
2022-10-09T17:28:39.616Z,11.53
2022-10-09T17:31:08.592Z,11.49
2022-10-09T17:33:41.286Z,11.43
2022-10-09T17:36:08.959Z,11.38
2022-10-09T17:38:36.162Z,11.32
2022-10-09T17:41:08.146Z,11.22
2022-10-09T17:43:35.023Z,11.19
2022-10-09T17:46:01.775Z,11.11
2022-10-09T17:48:29.272Z,11.12
2022-10-09T17:50:57.821Z,11.08
2022-10-09T17:53:25.367Z,11.06
2022-10-09T17:55:57.180Z,10.99
2022-10-09T17:58:24.530Z,10.96
2022-10-09T18:00:51.582Z,10.87
2022-10-09T18:03:18.716Z,10.93
2022-10-09T18:05:47.927Z,10.92
2022-10-09T18:08:18.529Z,10.75
2022-10-09T18:10:45.982Z,10.79
2022-10-09T18:13:12.584Z,10.71
2022-10-09T18:15:44.029Z,10.69
2022-10-09T18:18:11.802Z,10.66
2022-10-09T18:20:39.860Z,10.58
2022-10-09T18:23:08.381Z,10.62
2022-10-09T18:25:40.129Z,10.60
2022-10-09T18:28:06.957Z,10.58
2022-10-09T18:30:34.088Z,10.52
2022-10-09T18:33:00.716Z,10.49
2022-10-09T18:35:27.383Z,10.49
2022-10-09T18:37:53.938Z,10.47
2022-10-09T18:40:20.542Z,10.47
2022-10-09T18:42:47.510Z,10.44
2022-10-09T18:45:16.187Z,10.28
2022-10-09T18:47:43.693Z,10.42
2022-10-09T18:50:13.007Z,10.43
2022-10-09T18:52:41.437Z,10.28
2022-10-09T18:55:11.100Z,10.36
2022-10-09T18:57:40.671Z,10.30
2022-10-09T19:00:08.184Z,10.26
2022-10-09T19:02:35.074Z,10.20
2022-10-09T19:05:01.723Z,10.06
2022-10-09T19:07:28.322Z,10.18
2022-10-09T19:09:57.352Z,10.13
2022-10-09T19:12:24.949Z,10.05
2022-10-09T19:14:52.012Z,10.07
2022-10-09T19:17:18.975Z,10.02
2022-10-09T19:19:45.577Z,10.02
2022-10-09T19:22:16.537Z,9.98
2022-10-09T19:24:44.949Z,9.95
2022-10-09T19:27:11.804Z,9.99
2022-10-09T19:29:38.509Z,9.96
2022-10-09T19:32:05.117Z,9.93
2022-10-09T19:34:33.019Z,9.91
2022-10-09T19:36:59.656Z,9.81
2022-10-09T19:39:26.317Z,9.82
2022-10-09T19:41:52.886Z,9.81
2022-10-09T19:44:19.593Z,9.74
2022-10-09T19:46:46.781Z,9.61
2022-10-09T19:49:13.652Z,9.64
2022-10-09T19:51:40.410Z,9.63
2022-10-09T19:54:08.310Z,9.61
2022-10-09T19:56:36.452Z,9.42
2022-10-09T19:59:05.978Z,9.55
2022-10-09T20:01:35.301Z,9.53
2022-10-09T20:04:05.459Z,9.50
2022-10-09T20:06:32.396Z,9.50
2022-10-09T20:08:59.180Z,9.47
2022-10-09T20:11:26.330Z,9.47
2022-10-09T20:13:56.001Z,9.44
2022-10-09T20:16:24.223Z,9.25
2022-10-09T20:18:50.810Z,9.32
2022-10-09T20:21:18.494Z,9.36
2022-10-09T20:23:45.361Z,9.35
2022-10-09T20:26:15.308Z,9.36
2022-10-09T20:28:42.559Z,9.26
2022-10-09T20:31:14.748Z,9.32
2022-10-09T20:33:42.304Z,9.26
2022-10-09T20:36:17.317Z,9.10
2022-10-09T20:38:43.900Z,9.10
2022-10-09T20:41:10.459Z,9.17
2022-10-09T20:43:37.813Z,9.23
2022-10-09T20:46:09.489Z,9.21
2022-10-09T20:48:36.703Z,9.20
2022-10-09T20:51:03.832Z,9.17
2022-10-09T20:53:30.504Z,9.17
2022-10-09T20:56:01.433Z,9.00
2022-10-09T20:58:28.550Z,9.13
2022-10-09T21:00:55.330Z,8.97
2022-10-09T21:03:22.026Z,9.10
2022-10-09T21:05:48.692Z,9.08
2022-10-09T21:08:15.322Z,8.99
2022-10-09T21:10:46.090Z,8.94
2022-10-09T21:13:13.540Z,8.98
2022-10-09T21:15:45.085Z,8.81
2022-10-09T21:18:12.807Z,8.94
2022-10-09T21:20:42.214Z,8.91
2022-10-09T21:23:09.777Z,8.90
2022-10-09T21:25:36.665Z,8.89
2022-10-09T21:28:04.299Z,8.72
2022-10-09T21:30:31.686Z,8.83
2022-10-09T21:32:58.214Z,8.66
2022-10-09T21:35:24.803Z,8.77
2022-10-09T21:37:51.501Z,8.72
2022-10-09T21:40:18.456Z,8.71
2022-10-09T21:42:45.069Z,8.69
2022-10-09T21:45:13.437Z,8.64
2022-10-09T21:47:40.088Z,8.55
2022-10-09T21:50:07.349Z,8.58
2022-10-09T21:52:33.900Z,8.56
2022-10-09T21:55:00.436Z,8.55
2022-10-09T21:57:27.027Z,8.55
2022-10-09T21:59:53.557Z,8.38
2022-10-09T22:02:20.243Z,8.39
2022-10-09T22:04:46.876Z,8.50
2022-10-09T22:07:13.414Z,8.43
2022-10-09T22:09:39.949Z,8.42
2022-10-09T22:12:06.529Z,8.43
2022-10-09T22:14:33.104Z,8.37
2022-10-09T22:16:59.629Z,8.33
2022-10-09T22:19:26.333Z,8.32
2022-10-09T22:21:52.876Z,8.29
2022-10-09T22:24:19.486Z,8.27
2022-10-09T22:26:46.054Z,8.24
2022-10-09T22:29:12.586Z,8.21
2022-10-09T22:31:39.164Z,8.21
2022-10-09T22:34:05.793Z,8.21
2022-10-09T22:36:33.971Z,8.00
2022-10-09T22:39:04.362Z,8.14
2022-10-09T22:41:31.307Z,8.13
2022-10-09T22:43:59.809Z,8.12
2022-10-09T22:46:44.945Z,8.13
2022-10-09T22:49:14.916Z,8.09
2022-10-09T22:51:41.671Z,8.06
2022-10-09T22:54:08.419Z,8.02
2022-10-09T22:56:38.380Z,7.90
2022-10-09T22:59:07.551Z,8.01
2022-10-09T23:01:39.481Z,7.98
2022-10-09T23:04:08.637Z,7.97
2022-10-09T23:06:35.179Z,7.94
2022-10-09T23:09:05.273Z,7.94
2022-10-09T23:11:31.811Z,7.94
2022-10-09T23:13:59.952Z,7.93
2022-10-09T23:16:29.029Z,7.91
2022-10-09T23:18:57.917Z,7.90
2022-10-09T23:21:24.978Z,7.85
2022-10-09T23:23:53.199Z,7.71
2022-10-09T23:26:26.522Z,7.78
2022-10-09T23:28:58.814Z,7.83
2022-10-09T23:31:26.725Z,7.78
2022-10-09T23:33:53.360Z,7.66
2022-10-09T23:36:21.995Z,7.75
2022-10-09T23:38:48.633Z,7.79
2022-10-09T23:41:19.086Z,7.71
2022-10-09T23:43:47.179Z,7.69
2022-10-09T23:46:17.335Z,7.73
2022-10-09T23:48:44.361Z,7.67
2022-10-09T23:51:11.731Z,7.58
2022-10-09T23:53:38.312Z,7.61
2022-10-09T23:56:21.527Z,7.57
2022-10-09T23:58:48.636Z,7.55
